sensor_id;sensor_type;location;lat;lon;timestamp;P1;durP1;ratioP1;P2;durP2;ratioP2
69744;SDS011;57015;50.120;-5.168;2022-07-11T00:02:06;3.60;;;1.40;;
69744;SDS011;57015;50.120;-5.168;2022-07-11T00:04:33;3.65;;;1.40;;
69744;SDS011;57015;50.120;-5.168;2022-07-11T00:06:58;3.15;;;1.05;;
69744;SDS011;57015;50.120;-5.168;2022-07-11T00:09:25;4.90;;;1.63;;
69744;SDS011;57015;50.120;-5.168;2022-07-11T00:11:51;3.93;;;1.03;;
69744;SDS011;57015;50.120;-5.168;2022-07-11T00:14:16;2.93;;;1.03;;
69744;SDS011;57015;50.120;-5.168;2022-07-11T00:16:42;2.95;;;1.33;;
69744;SDS011;57015;50.120;-5.168;2022-07-11T00:19:08;4.50;;;0.97;;
69744;SDS011;57015;50.120;-5.168;2022-07-11T00:21:34;4.00;;;1.30;;
69744;SDS011;57015;50.120;-5.168;2022-07-11T00:24:01;2.25;;;0.70;;
69744;SDS011;57015;50.120;-5.168;2022-07-11T00:26:27;3.08;;;0.82;;
69744;SDS011;57015;50.120;-5.168;2022-07-11T00:28:53;3.07;;;1.17;;
69744;SDS011;57015;50.120;-5.168;2022-07-11T00:31:19;2.75;;;1.05;;
69744;SDS011;57015;50.120;-5.168;2022-07-11T00:33:44;4.77;;;1.13;;
69744;SDS011;57015;50.120;-5.168;2022-07-11T00:36:10;2.97;;;1.10;;
69744;SDS011;57015;50.120;-5.168;2022-07-11T00:38:36;3.63;;;0.80;;
69744;SDS011;57015;50.120;-5.168;2022-07-11T00:41:01;3.23;;;0.80;;
69744;SDS011;57015;50.120;-5.168;2022-07-11T00:43:31;2.42;;;0.93;;
69744;SDS011;57015;50.120;-5.168;2022-07-11T00:45:57;2.77;;;1.03;;
69744;SDS011;57015;50.120;-5.168;2022-07-11T00:48:22;4.15;;;0.80;;
69744;SDS011;57015;50.120;-5.168;2022-07-11T00:50:48;3.23;;;0.90;;
69744;SDS011;57015;50.120;-5.168;2022-07-11T00:53:13;2.17;;;0.80;;
69744;SDS011;57015;50.120;-5.168;2022-07-11T00:55:39;2.40;;;1.00;;
69744;SDS011;57015;50.120;-5.168;2022-07-11T00:58:05;2.92;;;0.90;;
69744;SDS011;57015;50.120;-5.168;2022-07-11T01:00:31;3.00;;;0.70;;
69744;SDS011;57015;50.120;-5.168;2022-07-11T01:02:56;3.88;;;0.98;;
69744;SDS011;57015;50.120;-5.168;2022-07-11T01:05:22;2.10;;;0.90;;
69744;SDS011;57015;50.120;-5.168;2022-07-11T01:07:47;4.83;;;1.00;;
69744;SDS011;57015;50.120;-5.168;2022-07-11T01:10:12;3.43;;;0.80;;
69744;SDS011;57015;50.120;-5.168;2022-07-11T01:12:38;2.20;;;0.87;;
69744;SDS011;57015;50.120;-5.168;2022-07-11T01:15:03;3.47;;;1.00;;
69744;SDS011;57015;50.120;-5.168;2022-07-11T01:17:30;1.88;;;0.75;;
69744;SDS011;57015;50.120;-5.168;2022-07-11T01:19:56;5.10;;;1.00;;
69744;SDS011;57015;50.120;-5.168;2022-07-11T01:22:23;2.50;;;0.87;;
69744;SDS011;57015;50.120;-5.168;2022-07-11T01:24:49;2.25;;;1.00;;
69744;SDS011;57015;50.120;-5.168;2022-07-11T01:27:15;2.20;;;1.17;;
69744;SDS011;57015;50.120;-5.168;2022-07-11T01:29:40;2.13;;;0.80;;
69744;SDS011;57015;50.120;-5.168;2022-07-11T01:32:08;3.00;;;1.00;;
69744;SDS011;57015;50.120;-5.168;2022-07-11T01:34:34;2.05;;;0.70;;
69744;SDS011;57015;50.120;-5.168;2022-07-11T01:36:59;3.50;;;0.90;;
69744;SDS011;57015;50.120;-5.168;2022-07-11T01:39:25;2.25;;;1.00;;
69744;SDS011;57015;50.120;-5.168;2022-07-11T01:41:54;3.33;;;0.70;;
69744;SDS011;57015;50.120;-5.168;2022-07-11T01:44:21;2.67;;;0.70;;
69744;SDS011;57015;50.120;-5.168;2022-07-11T01:46:46;1.73;;;0.60;;
69744;SDS011;57015;50.120;-5.168;2022-07-11T01:49:12;3.10;;;1.20;;
69744;SDS011;57015;50.120;-5.168;2022-07-11T01:51:38;3.15;;;0.70;;
69744;SDS011;57015;50.120;-5.168;2022-07-11T01:54:03;2.63;;;0.80;;
69744;SDS011;57015;50.120;-5.168;2022-07-11T01:56:29;4.63;;;1.07;;
69744;SDS011;57015;50.120;-5.168;2022-07-11T01:58:57;3.60;;;0.88;;
69744;SDS011;57015;50.120;-5.168;2022-07-11T02:01:23;1.87;;;0.63;;
69744;SDS011;57015;50.120;-5.168;2022-07-11T02:03:49;3.20;;;1.02;;
69744;SDS011;57015;50.120;-5.168;2022-07-11T02:06:15;3.27;;;0.80;;
69744;SDS011;57015;50.120;-5.168;2022-07-11T02:08:40;2.85;;;0.85;;
69744;SDS011;57015;50.120;-5.168;2022-07-11T02:11:06;3.13;;;0.80;;
69744;SDS011;57015;50.120;-5.168;2022-07-11T02:13:32;3.00;;;0.60;;
69744;SDS011;57015;50.120;-5.168;2022-07-11T02:15:58;3.33;;;0.90;;
69744;SDS011;57015;50.120;-5.168;2022-07-11T02:18:23;2.27;;;0.60;;
69744;SDS011;57015;50.120;-5.168;2022-07-11T02:20:49;2.08;;;0.70;;
69744;SDS011;57015;50.120;-5.168;2022-07-11T02:23:14;1.87;;;0.60;;
69744;SDS011;57015;50.120;-5.168;2022-07-11T02:25:40;4.03;;;0.90;;
69744;SDS011;57015;50.120;-5.168;2022-07-11T02:28:06;2.08;;;0.65;;
69744;SDS011;57015;50.120;-5.168;2022-07-11T02:30:35;1.40;;;0.40;;
69744;SDS011;57015;50.120;-5.168;2022-07-11T02:33:01;2.92;;;0.65;;
69744;SDS011;57015;50.120;-5.168;2022-07-11T02:35:27;3.47;;;0.75;;
69744;SDS011;57015;50.120;-5.168;2022-07-11T02:37:52;1.87;;;0.60;;
69744;SDS011;57015;50.120;-5.168;2022-07-11T02:40:18;2.23;;;0.70;;
69744;SDS011;57015;50.120;-5.168;2022-07-11T02:42:44;2.83;;;0.77;;
69744;SDS011;57015;50.120;-5.168;2022-07-11T02:45:09;1.90;;;0.60;;
69744;SDS011;57015;50.120;-5.168;2022-07-11T02:47:38;2.05;;;0.60;;
69744;SDS011;57015;50.120;-5.168;2022-07-11T02:50:05;2.35;;;0.70;;
69744;SDS011;57015;50.120;-5.168;2022-07-11T02:52:32;3.95;;;2.05;;
69744;SDS011;57015;50.120;-5.168;2022-07-11T02:54:58;1.77;;;0.80;;
69744;SDS011;57015;50.120;-5.168;2022-07-11T02:57:23;1.35;;;0.60;;
69744;SDS011;57015;50.120;-5.168;2022-07-11T02:59:49;1.77;;;0.73;;
69744;SDS011;57015;50.120;-5.168;2022-07-11T03:02:14;3.03;;;0.83;;
69744;SDS011;57015;50.120;-5.168;2022-07-11T03:04:40;2.30;;;0.70;;
69744;SDS011;57015;50.120;-5.168;2022-07-11T03:07:06;1.67;;;0.55;;
69744;SDS011;57015;50.120;-5.168;2022-07-11T03:09:31;2.63;;;1.05;;
69744;SDS011;57015;50.120;-5.168;2022-07-11T03:11:57;1.88;;;0.80;;
69744;SDS011;57015;50.120;-5.168;2022-07-11T03:14:22;3.53;;;0.73;;
69744;SDS011;57015;50.120;-5.168;2022-07-11T03:16:47;2.97;;;0.70;;
69744;SDS011;57015;50.120;-5.168;2022-07-11T03:19:13;3.45;;;0.82;;
69744;SDS011;57015;50.120;-5.168;2022-07-11T03:21:39;3.83;;;1.45;;
69744;SDS011;57015;50.120;-5.168;2022-07-11T03:24:04;1.83;;;0.70;;
69744;SDS011;57015;50.120;-5.168;2022-07-11T03:26:30;1.60;;;0.63;;
69744;SDS011;57015;50.120;-5.168;2022-07-11T03:28:55;2.40;;;0.97;;
69744;SDS011;57015;50.120;-5.168;2022-07-11T03:31:20;2.15;;;0.55;;
69744;SDS011;57015;50.120;-5.168;2022-07-11T03:33:46;4.47;;;1.00;;
69744;SDS011;57015;50.120;-5.168;2022-07-11T03:36:11;2.50;;;0.90;;
69744;SDS011;57015;50.120;-5.168;2022-07-11T03:38:37;2.90;;;0.80;;
69744;SDS011;57015;50.120;-5.168;2022-07-11T03:41:06;2.10;;;0.77;;
69744;SDS011;57015;50.120;-5.168;2022-07-11T03:43:31;2.17;;;0.63;;
69744;SDS011;57015;50.120;-5.168;2022-07-11T03:45:57;2.03;;;0.60;;
69744;SDS011;57015;50.120;-5.168;2022-07-11T03:48:22;2.53;;;0.77;;
69744;SDS011;57015;50.120;-5.168;2022-07-11T03:50:48;1.77;;;0.70;;
69744;SDS011;57015;50.120;-5.168;2022-07-11T03:53:14;1.70;;;0.80;;
69744;SDS011;57015;50.120;-5.168;2022-07-11T03:55:39;3.30;;;0.95;;
69744;SDS011;57015;50.120;-5.168;2022-07-11T03:58:05;1.80;;;0.90;;
69744;SDS011;57015;50.120;-5.168;2022-07-11T04:00:30;1.70;;;0.73;;
69744;SDS011;57015;50.120;-5.168;2022-07-11T04:02:56;3.40;;;0.90;;
69744;SDS011;57015;50.120;-5.168;2022-07-11T04:05:22;2.70;;;0.85;;
69744;SDS011;57015;50.120;-5.168;2022-07-11T04:07:48;3.80;;;0.80;;
69744;SDS011;57015;50.120;-5.168;2022-07-11T04:10:14;2.45;;;0.85;;
69744;SDS011;57015;50.120;-5.168;2022-07-11T04:12:40;5.23;;;0.77;;
69744;SDS011;57015;50.120;-5.168;2022-07-11T04:15:05;3.08;;;0.80;;
69744;SDS011;57015;50.120;-5.168;2022-07-11T04:17:31;2.75;;;0.90;;
69744;SDS011;57015;50.120;-5.168;2022-07-11T04:19:56;2.73;;;0.87;;
69744;SDS011;57015;50.120;-5.168;2022-07-11T04:22:22;2.15;;;1.00;;
69744;SDS011;57015;50.120;-5.168;2022-07-11T04:24:48;3.30;;;0.80;;
69744;SDS011;57015;50.120;-5.168;2022-07-11T04:27:13;2.03;;;0.60;;
69744;SDS011;57015;50.120;-5.168;2022-07-11T04:29:39;2.53;;;0.80;;
69744;SDS011;57015;50.120;-5.168;2022-07-11T04:32:04;3.47;;;0.70;;
69744;SDS011;57015;50.120;-5.168;2022-07-11T04:34:30;1.88;;;0.55;;
69744;SDS011;57015;50.120;-5.168;2022-07-11T04:36:56;2.90;;;0.70;;
69744;SDS011;57015;50.120;-5.168;2022-07-11T04:39:21;4.33;;;0.77;;
69744;SDS011;57015;50.120;-5.168;2022-07-11T04:41:47;2.53;;;0.80;;
69744;SDS011;57015;50.120;-5.168;2022-07-11T04:44:12;3.50;;;1.07;;
69744;SDS011;57015;50.120;-5.168;2022-07-11T04:46:38;2.60;;;0.60;;
69744;SDS011;57015;50.120;-5.168;2022-07-11T04:49:03;1.80;;;0.70;;
69744;SDS011;57015;50.120;-5.168;2022-07-11T04:51:28;1.27;;;0.43;;
69744;SDS011;57015;50.120;-5.168;2022-07-11T04:53:54;2.47;;;0.70;;
69744;SDS011;57015;50.120;-5.168;2022-07-11T04:56:19;3.37;;;0.73;;
69744;SDS011;57015;50.120;-5.168;2022-07-11T04:58:44;3.07;;;0.63;;
69744;SDS011;57015;50.120;-5.168;2022-07-11T05:01:10;1.60;;;0.57;;
69744;SDS011;57015;50.120;-5.168;2022-07-11T05:03:35;2.05;;;0.70;;
69744;SDS011;57015;50.120;-5.168;2022-07-11T05:06:02;1.90;;;0.60;;
69744;SDS011;57015;50.120;-5.168;2022-07-11T05:08:28;4.18;;;0.80;;
69744;SDS011;57015;50.120;-5.168;2022-07-11T05:10:54;2.28;;;0.80;;
69744;SDS011;57015;50.120;-5.168;2022-07-11T05:13:20;4.00;;;0.70;;
69744;SDS011;57015;50.120;-5.168;2022-07-11T05:15:45;2.60;;;0.80;;
69744;SDS011;57015;50.120;-5.168;2022-07-11T05:18:11;2.70;;;0.77;;
69744;SDS011;57015;50.120;-5.168;2022-07-11T05:20:36;2.80;;;0.63;;
69744;SDS011;57015;50.120;-5.168;2022-07-11T05:23:02;2.85;;;0.80;;
69744;SDS011;57015;50.120;-5.168;2022-07-11T05:25:27;1.97;;;0.50;;
69744;SDS011;57015;50.120;-5.168;2022-07-11T05:27:53;1.47;;;0.60;;
69744;SDS011;57015;50.120;-5.168;2022-07-11T05:30:18;2.97;;;0.77;;
69744;SDS011;57015;50.120;-5.168;2022-07-11T05:32:44;5.75;;;0.77;;
69744;SDS011;57015;50.120;-5.168;2022-07-11T05:35:09;2.03;;;0.70;;
69744;SDS011;57015;50.120;-5.168;2022-07-11T05:37:35;1.80;;;0.80;;
69744;SDS011;57015;50.120;-5.168;2022-07-11T05:40:00;1.57;;;0.60;;
69744;SDS011;57015;50.120;-5.168;2022-07-11T05:42:26;2.30;;;0.80;;
69744;SDS011;57015;50.120;-5.168;2022-07-11T05:44:52;2.25;;;0.80;;
69744;SDS011;57015;50.120;-5.168;2022-07-11T05:47:18;2.13;;;0.70;;
69744;SDS011;57015;50.120;-5.168;2022-07-11T05:49:43;3.07;;;0.90;;
69744;SDS011;57015;50.120;-5.168;2022-07-11T05:52:08;3.33;;;0.60;;
69744;SDS011;57015;50.120;-5.168;2022-07-11T05:54:34;1.88;;;0.73;;
69744;SDS011;57015;50.120;-5.168;2022-07-11T05:57:00;2.03;;;0.80;;
69744;SDS011;57015;50.120;-5.168;2022-07-11T05:59:28;3.55;;;1.10;;
69744;SDS011;57015;50.120;-5.168;2022-07-11T06:01:54;2.58;;;0.60;;
69744;SDS011;57015;50.120;-5.168;2022-07-11T06:04:20;3.10;;;0.80;;
69744;SDS011;57015;50.120;-5.168;2022-07-11T06:06:45;3.00;;;0.70;;
69744;SDS011;57015;50.120;-5.168;2022-07-11T06:09:11;2.13;;;0.82;;
69744;SDS011;57015;50.120;-5.168;2022-07-11T06:11:37;2.78;;;0.90;;
69744;SDS011;57015;50.120;-5.168;2022-07-11T06:14:02;2.10;;;0.77;;
69744;SDS011;57015;50.120;-5.168;2022-07-11T06:16:28;1.67;;;0.63;;
69744;SDS011;57015;50.120;-5.168;2022-07-11T06:18:53;2.97;;;1.10;;
69744;SDS011;57015;50.120;-5.168;2022-07-11T06:21:19;2.85;;;0.70;;
69744;SDS011;57015;50.120;-5.168;2022-07-11T06:23:45;2.60;;;0.77;;
69744;SDS011;57015;50.120;-5.168;2022-07-11T06:26:11;2.63;;;0.90;;
69744;SDS011;57015;50.120;-5.168;2022-07-11T06:28:37;2.60;;;0.70;;
69744;SDS011;57015;50.120;-5.168;2022-07-11T06:31:03;4.25;;;1.00;;
69744;SDS011;57015;50.120;-5.168;2022-07-11T06:33:29;1.57;;;0.80;;
69744;SDS011;57015;50.120;-5.168;2022-07-11T06:35:54;4.20;;;0.90;;
69744;SDS011;57015;50.120;-5.168;2022-07-11T06:38:20;4.37;;;0.93;;
69744;SDS011;57015;50.120;-5.168;2022-07-11T06:40:45;2.83;;;1.17;;
69744;SDS011;57015;50.120;-5.168;2022-07-11T06:43:12;2.70;;;0.98;;
69744;SDS011;57015;50.120;-5.168;2022-07-11T06:45:37;4.67;;;1.10;;
69744;SDS011;57015;50.120;-5.168;2022-07-11T06:48:03;2.08;;;0.85;;
69744;SDS011;57015;50.120;-5.168;2022-07-11T06:50:29;1.80;;;0.83;;
69744;SDS011;57015;50.120;-5.168;2022-07-11T06:52:55;2.42;;;1.10;;
69744;SDS011;57015;50.120;-5.168;2022-07-11T06:55:20;4.23;;;1.23;;
69744;SDS011;57015;50.120;-5.168;2022-07-11T06:57:46;3.47;;;1.00;;
69744;SDS011;57015;50.120;-5.168;2022-07-11T07:00:11;1.93;;;1.03;;
69744;SDS011;57015;50.120;-5.168;2022-07-11T07:02:37;2.58;;;1.05;;
69744;SDS011;57015;50.120;-5.168;2022-07-11T07:05:03;3.00;;;1.00;;
69744;SDS011;57015;50.120;-5.168;2022-07-11T07:07:30;3.47;;;0.87;;
69744;SDS011;57015;50.120;-5.168;2022-07-11T07:09:56;3.80;;;1.30;;
69744;SDS011;57015;50.120;-5.168;2022-07-11T07:12:22;5.38;;;1.15;;
69744;SDS011;57015;50.120;-5.168;2022-07-11T07:14:47;2.90;;;1.03;;
69744;SDS011;57015;50.120;-5.168;2022-07-11T07:17:13;3.97;;;1.00;;
69744;SDS011;57015;50.120;-5.168;2022-07-11T07:19:38;2.40;;;0.90;;
69744;SDS011;57015;50.120;-5.168;2022-07-11T07:22:04;3.77;;;1.20;;
69744;SDS011;57015;50.120;-5.168;2022-07-11T07:24:31;2.40;;;1.15;;
69744;SDS011;57015;50.120;-5.168;2022-07-11T07:26:57;2.17;;;0.85;;
69744;SDS011;57015;50.120;-5.168;2022-07-11T07:29:22;2.47;;;0.83;;
69744;SDS011;57015;50.120;-5.168;2022-07-11T07:31:47;3.87;;;1.30;;
69744;SDS011;57015;50.120;-5.168;2022-07-11T07:34:14;4.20;;;1.05;;
69744;SDS011;57015;50.120;-5.168;2022-07-11T07:36:39;2.67;;;0.90;;
69744;SDS011;57015;50.120;-5.168;2022-07-11T07:39:05;2.03;;;1.10;;
69744;SDS011;57015;50.120;-5.168;2022-07-11T07:41:30;2.90;;;0.80;;
69744;SDS011;57015;50.120;-5.168;2022-07-11T07:43:55;2.67;;;1.10;;
69744;SDS011;57015;50.120;-5.168;2022-07-11T07:46:21;3.33;;;1.00;;
69744;SDS011;57015;50.120;-5.168;2022-07-11T07:48:47;3.10;;;1.00;;
69744;SDS011;57015;50.120;-5.168;2022-07-11T07:51:12;3.03;;;0.80;;
69744;SDS011;57015;50.120;-5.168;2022-07-11T07:53:37;3.90;;;1.20;;
69744;SDS011;57015;50.120;-5.168;2022-07-11T07:56:04;2.10;;;1.00;;
69744;SDS011;57015;50.120;-5.168;2022-07-11T07:58:30;3.38;;;0.88;;
69744;SDS011;57015;50.120;-5.168;2022-07-11T08:00:55;2.90;;;1.00;;
69744;SDS011;57015;50.120;-5.168;2022-07-11T08:03:59;2.58;;;0.90;;
69744;SDS011;57015;50.120;-5.168;2022-07-11T08:06:25;3.92;;;1.23;;
69744;SDS011;57015;50.120;-5.168;2022-07-11T08:08:51;3.23;;;1.13;;
69744;SDS011;57015;50.120;-5.168;2022-07-11T08:11:16;2.57;;;1.10;;
69744;SDS011;57015;50.120;-5.168;2022-07-11T08:13:42;2.60;;;0.70;;
69744;SDS011;57015;50.120;-5.168;2022-07-11T08:16:08;1.95;;;0.95;;
69744;SDS011;57015;50.120;-5.168;2022-07-11T08:18:33;2.40;;;0.83;;
69744;SDS011;57015;50.120;-5.168;2022-07-11T08:21:00;2.85;;;0.70;;
69744;SDS011;57015;50.120;-5.168;2022-07-11T08:23:26;2.87;;;1.07;;
69744;SDS011;57015;50.120;-5.168;2022-07-11T08:25:51;1.70;;;0.80;;
69744;SDS011;57015;50.120;-5.168;2022-07-11T08:28:17;2.40;;;1.02;;
69744;SDS011;57015;50.120;-5.168;2022-07-11T08:30:43;3.23;;;1.50;;
69744;SDS011;57015;50.120;-5.168;2022-07-11T08:33:08;3.63;;;1.30;;
69744;SDS011;57015;50.120;-5.168;2022-07-11T08:35:34;3.40;;;1.30;;
69744;SDS011;57015;50.120;-5.168;2022-07-11T08:37:59;4.40;;;1.00;;
69744;SDS011;57015;50.120;-5.168;2022-07-11T08:40:25;3.67;;;1.08;;
69744;SDS011;57015;50.120;-5.168;2022-07-11T08:42:51;4.00;;;1.13;;
69744;SDS011;57015;50.120;-5.168;2022-07-11T08:45:17;6.20;;;1.27;;
69744;SDS011;57015;50.120;-5.168;2022-07-11T08:47:43;3.20;;;1.20;;
69744;SDS011;57015;50.120;-5.168;2022-07-11T08:50:10;3.53;;;1.25;;
69744;SDS011;57015;50.120;-5.168;2022-07-11T08:52:36;3.60;;;1.27;;
69744;SDS011;57015;50.120;-5.168;2022-07-11T08:55:02;8.90;;;1.42;;
69744;SDS011;57015;50.120;-5.168;2022-07-11T08:57:32;4.43;;;1.20;;
69744;SDS011;57015;50.120;-5.168;2022-07-11T09:00:07;3.58;;;1.15;;
69744;SDS011;57015;50.120;-5.168;2022-07-11T09:02:34;6.38;;;1.35;;
69744;SDS011;57015;50.120;-5.168;2022-07-11T09:05:00;5.63;;;1.38;;
69744;SDS011;57015;50.120;-5.168;2022-07-11T09:07:28;4.60;;;1.40;;
69744;SDS011;57015;50.120;-5.168;2022-07-11T09:09:54;4.10;;;1.27;;
69744;SDS011;57015;50.120;-5.168;2022-07-11T09:12:19;5.10;;;1.40;;
69744;SDS011;57015;50.120;-5.168;2022-07-11T09:14:49;7.63;;;1.23;;
69744;SDS011;57015;50.120;-5.168;2022-07-11T09:17:23;4.70;;;1.33;;
69744;SDS011;57015;50.120;-5.168;2022-07-11T09:19:52;4.47;;;1.40;;
69744;SDS011;57015;50.120;-5.168;2022-07-11T09:22:18;4.70;;;1.17;;
69744;SDS011;57015;50.120;-5.168;2022-07-11T09:25:06;3.92;;;1.17;;
69744;SDS011;57015;50.120;-5.168;2022-07-11T09:27:53;5.85;;;1.60;;
69744;SDS011;57015;50.120;-5.168;2022-07-11T09:30:36;5.27;;;1.50;;
69744;SDS011;57015;50.120;-5.168;2022-07-11T09:33:26;5.47;;;1.20;;
69744;SDS011;57015;50.120;-5.168;2022-07-11T09:35:53;4.05;;;1.45;;
69744;SDS011;57015;50.120;-5.168;2022-07-11T09:38:19;4.15;;;1.17;;
69744;SDS011;57015;50.120;-5.168;2022-07-11T09:40:46;8.07;;;1.63;;
69744;SDS011;57015;50.120;-5.168;2022-07-11T09:43:13;4.20;;;1.35;;
69744;SDS011;57015;50.120;-5.168;2022-07-11T09:45:39;7.03;;;1.27;;
69744;SDS011;57015;50.120;-5.168;2022-07-11T09:48:08;5.90;;;1.33;;
69744;SDS011;57015;50.120;-5.168;2022-07-11T09:50:35;4.05;;;1.48;;
69744;SDS011;57015;50.120;-5.168;2022-07-11T09:53:02;9.07;;;1.50;;
69744;SDS011;57015;50.120;-5.168;2022-07-11T09:55:32;5.43;;;1.50;;
69744;SDS011;57015;50.120;-5.168;2022-07-11T09:57:59;5.65;;;1.45;;
69744;SDS011;57015;50.120;-5.168;2022-07-11T10:00:28;4.73;;;1.40;;
69744;SDS011;57015;50.120;-5.168;2022-07-11T10:02:54;7.15;;;1.55;;
69744;SDS011;57015;50.120;-5.168;2022-07-11T10:05:20;6.87;;;1.37;;
69744;SDS011;57015;50.120;-5.168;2022-07-11T10:07:46;6.28;;;1.70;;
69744;SDS011;57015;50.120;-5.168;2022-07-11T10:10:11;4.90;;;1.60;;
69744;SDS011;57015;50.120;-5.168;2022-07-11T10:12:38;6.03;;;1.47;;
69744;SDS011;57015;50.120;-5.168;2022-07-11T10:15:05;5.38;;;1.40;;
69744;SDS011;57015;50.120;-5.168;2022-07-11T10:17:39;8.70;;;1.67;;
69744;SDS011;57015;50.120;-5.168;2022-07-11T10:30:43;5.47;;;1.70;;
69744;SDS011;57015;50.120;-5.168;2022-07-11T10:33:10;4.93;;;1.35;;
69744;SDS011;57015;50.120;-5.168;2022-07-11T10:35:37;4.03;;;1.13;;
69744;SDS011;57015;50.120;-5.168;2022-07-11T10:38:05;7.47;;;1.60;;
69744;SDS011;57015;50.120;-5.168;2022-07-11T10:40:40;4.20;;;1.10;;
69744;SDS011;57015;50.120;-5.168;2022-07-11T10:43:14;5.82;;;1.35;;
69744;SDS011;57015;50.120;-5.168;2022-07-11T10:46:00;4.45;;;1.35;;
69744;SDS011;57015;50.120;-5.168;2022-07-11T10:48:29;6.75;;;1.00;;
69744;SDS011;57015;50.120;-5.168;2022-07-11T10:51:15;5.10;;;1.60;;
69744;SDS011;57015;50.120;-5.168;2022-07-11T10:53:49;4.47;;;1.30;;
69744;SDS011;57015;50.120;-5.168;2022-07-11T10:59:03;6.75;;;2.03;;
69744;SDS011;57015;50.120;-5.168;2022-07-11T11:04:40;5.95;;;1.60;;
69744;SDS011;57015;50.120;-5.168;2022-07-11T11:09:57;5.90;;;1.15;;
69744;SDS011;57015;50.120;-5.168;2022-07-11T11:23:27;5.50;;;2.10;;
69744;SDS011;57015;50.120;-5.168;2022-07-11T11:25:54;5.60;;;1.40;;
69744;SDS011;57015;50.120;-5.168;2022-07-11T11:28:20;10.30;;;1.55;;
69744;SDS011;57015;50.120;-5.168;2022-07-11T11:30:53;6.55;;;1.50;;
69744;SDS011;57015;50.120;-5.168;2022-07-11T11:33:19;5.18;;;1.67;;
69744;SDS011;57015;50.120;-5.168;2022-07-11T11:35:45;6.65;;;1.30;;
69744;SDS011;57015;50.120;-5.168;2022-07-11T11:38:11;4.90;;;1.40;;
69744;SDS011;57015;50.120;-5.168;2022-07-11T11:40:36;7.72;;;1.92;;
69744;SDS011;57015;50.120;-5.168;2022-07-11T11:43:19;5.65;;;1.23;;
69744;SDS011;57015;50.120;-5.168;2022-07-11T11:45:49;6.67;;;1.90;;
69744;SDS011;57015;50.120;-5.168;2022-07-11T11:48:30;4.80;;;2.10;;
69744;SDS011;57015;50.120;-5.168;2022-07-11T11:51:11;5.05;;;1.48;;
69744;SDS011;57015;50.120;-5.168;2022-07-11T11:58:38;6.20;;;1.70;;
69744;SDS011;57015;50.120;-5.168;2022-07-11T12:01:04;4.57;;;1.40;;
69744;SDS011;57015;50.120;-5.168;2022-07-11T12:04:04;4.53;;;1.33;;
69744;SDS011;57015;50.120;-5.168;2022-07-11T12:06:26;4.85;;;1.70;;
69744;SDS011;57015;50.120;-5.168;2022-07-11T12:09:03;6.35;;;1.58;;
69744;SDS011;57015;50.120;-5.168;2022-07-11T12:11:30;6.25;;;1.33;;
69744;SDS011;57015;50.120;-5.168;2022-07-11T12:13:59;5.28;;;1.67;;
69744;SDS011;57015;50.120;-5.168;2022-07-11T12:16:27;6.07;;;1.40;;
69744;SDS011;57015;50.120;-5.168;2022-07-11T12:19:04;7.88;;;1.60;;
69744;SDS011;57015;50.120;-5.168;2022-07-11T12:21:33;5.68;;;1.95;;
69744;SDS011;57015;50.120;-5.168;2022-07-11T12:24:00;5.57;;;1.73;;
69744;SDS011;57015;50.120;-5.168;2022-07-11T12:26:28;5.88;;;1.50;;
69744;SDS011;57015;50.120;-5.168;2022-07-11T12:29:08;5.30;;;1.60;;
69744;SDS011;57015;50.120;-5.168;2022-07-11T12:31:42;8.77;;;1.52;;
69744;SDS011;57015;50.120;-5.168;2022-07-11T12:34:09;6.80;;;1.40;;
69744;SDS011;57015;50.120;-5.168;2022-07-11T12:36:34;8.03;;;1.77;;
69744;SDS011;57015;50.120;-5.168;2022-07-11T12:39:00;5.85;;;1.50;;
69744;SDS011;57015;50.120;-5.168;2022-07-11T12:41:25;6.27;;;2.27;;
69744;SDS011;57015;50.120;-5.168;2022-07-11T12:43:53;6.85;;;1.23;;
69744;SDS011;57015;50.120;-5.168;2022-07-11T12:46:37;5.72;;;1.63;;
69744;SDS011;57015;50.120;-5.168;2022-07-11T12:49:04;5.60;;;1.50;;
69744;SDS011;57015;50.120;-5.168;2022-07-11T12:51:32;6.88;;;1.20;;
69744;SDS011;57015;50.120;-5.168;2022-07-11T12:54:03;5.88;;;1.50;;
69744;SDS011;57015;50.120;-5.168;2022-07-11T12:56:30;6.85;;;1.52;;
69744;SDS011;57015;50.120;-5.168;2022-07-11T12:58:56;8.82;;;1.80;;
69744;SDS011;57015;50.120;-5.168;2022-07-11T13:01:23;5.88;;;1.70;;
69744;SDS011;57015;50.120;-5.168;2022-07-11T13:03:48;6.47;;;1.77;;
69744;SDS011;57015;50.120;-5.168;2022-07-11T13:06:15;6.47;;;1.70;;
69744;SDS011;57015;50.120;-5.168;2022-07-11T13:08:40;4.38;;;1.35;;
69744;SDS011;57015;50.120;-5.168;2022-07-11T13:11:12;5.43;;;1.48;;
69744;SDS011;57015;50.120;-5.168;2022-07-11T13:13:38;5.27;;;1.43;;
69744;SDS011;57015;50.120;-5.168;2022-07-11T13:16:04;6.93;;;1.40;;
69744;SDS011;57015;50.120;-5.168;2022-07-11T13:18:31;6.93;;;1.80;;
69744;SDS011;57015;50.120;-5.168;2022-07-11T13:20:57;5.55;;;1.42;;
69744;SDS011;57015;50.120;-5.168;2022-07-11T13:23:22;5.87;;;1.60;;
69744;SDS011;57015;50.120;-5.168;2022-07-11T13:25:48;5.03;;;1.33;;
69744;SDS011;57015;50.120;-5.168;2022-07-11T13:28:13;8.43;;;1.77;;
69744;SDS011;57015;50.120;-5.168;2022-07-11T13:30:39;5.93;;;1.50;;
69744;SDS011;57015;50.120;-5.168;2022-07-11T13:33:05;5.55;;;1.85;;
69744;SDS011;57015;50.120;-5.168;2022-07-11T13:35:32;3.03;;;1.37;;
69744;SDS011;57015;50.120;-5.168;2022-07-11T13:37:58;5.75;;;1.30;;
69744;SDS011;57015;50.120;-5.168;2022-07-11T13:40:23;4.43;;;1.20;;
69744;SDS011;57015;50.120;-5.168;2022-07-11T13:42:50;4.63;;;1.33;;
69744;SDS011;57015;50.120;-5.168;2022-07-11T13:45:17;5.35;;;1.70;;
69744;SDS011;57015;50.120;-5.168;2022-07-11T13:47:44;5.45;;;1.50;;
69744;SDS011;57015;50.120;-5.168;2022-07-11T13:50:10;8.57;;;1.80;;
69744;SDS011;57015;50.120;-5.168;2022-07-11T13:52:35;7.95;;;2.08;;
69744;SDS011;57015;50.120;-5.168;2022-07-11T13:55:01;4.30;;;1.83;;
69744;SDS011;57015;50.120;-5.168;2022-07-11T13:57:27;10.17;;;1.83;;
69744;SDS011;57015;50.120;-5.168;2022-07-11T13:59:53;6.80;;;2.15;;
69744;SDS011;57015;50.120;-5.168;2022-07-11T14:02:20;5.28;;;1.58;;
69744;SDS011;57015;50.120;-5.168;2022-07-11T14:04:45;5.73;;;1.67;;
69744;SDS011;57015;50.120;-5.168;2022-07-11T14:07:11;5.97;;;1.57;;
69744;SDS011;57015;50.120;-5.168;2022-07-11T14:09:40;6.32;;;1.90;;
69744;SDS011;57015;50.120;-5.168;2022-07-11T14:12:06;9.18;;;1.38;;
69744;SDS011;57015;50.120;-5.168;2022-07-11T14:14:32;5.93;;;1.60;;
69744;SDS011;57015;50.120;-5.168;2022-07-11T14:16:58;5.87;;;1.47;;
69744;SDS011;57015;50.120;-5.168;2022-07-11T14:19:24;4.47;;;1.70;;
69744;SDS011;57015;50.120;-5.168;2022-07-11T14:21:50;9.03;;;2.27;;
69744;SDS011;57015;50.120;-5.168;2022-07-11T14:24:15;7.77;;;1.27;;
69744;SDS011;57015;50.120;-5.168;2022-07-11T14:26:41;3.97;;;1.75;;
69744;SDS011;57015;50.120;-5.168;2022-07-11T14:29:06;3.50;;;1.53;;
69744;SDS011;57015;50.120;-5.168;2022-07-11T14:31:32;5.82;;;1.67;;
69744;SDS011;57015;50.120;-5.168;2022-07-11T14:33:57;5.13;;;1.70;;
69744;SDS011;57015;50.120;-5.168;2022-07-11T14:36:23;6.18;;;2.00;;
69744;SDS011;57015;50.120;-5.168;2022-07-11T14:38:51;6.57;;;1.77;;
69744;SDS011;57015;50.120;-5.168;2022-07-11T14:41:17;6.25;;;1.77;;
69744;SDS011;57015;50.120;-5.168;2022-07-11T14:43:43;5.00;;;1.80;;
69744;SDS011;57015;50.120;-5.168;2022-07-11T14:46:10;4.82;;;1.52;;
69744;SDS011;57015;50.120;-5.168;2022-07-11T14:48:36;5.15;;;1.55;;
69744;SDS011;57015;50.120;-5.168;2022-07-11T14:51:02;4.77;;;2.00;;
69744;SDS011;57015;50.120;-5.168;2022-07-11T14:53:28;5.10;;;1.27;;
69744;SDS011;57015;50.120;-5.168;2022-07-11T14:55:53;6.10;;;1.97;;
69744;SDS011;57015;50.120;-5.168;2022-07-11T14:58:20;7.55;;;1.80;;
69744;SDS011;57015;50.120;-5.168;2022-07-11T15:00:45;5.57;;;1.58;;
69744;SDS011;57015;50.120;-5.168;2022-07-11T15:03:11;20.90;;;2.50;;
69744;SDS011;57015;50.120;-5.168;2022-07-11T15:05:55;6.85;;;1.70;;
69744;SDS011;57015;50.120;-5.168;2022-07-11T15:08:20;7.83;;;2.07;;